TRU weather

Capitan FAP Carlos Martinez De Pinillos International Airport
Trujillo, La Libertad Region, PerĂº

Public forecast

Using degrees Celsius for public forecast. Weather courtesy of forecast.io.

Current aviation weather report (METAR) for Capitan FAP Carlos Martinez De Pinillos International Airport

Retrieved 2020/01/17 21:00 UTC (40 minutes ago):

SPRU 172100Z 16011KT CAVOK 23/19 Q1007 RMK PP000

Aviation forecast (TAF) for Capitan FAP Carlos Martinez De Pinillos International Airport

Retrieved 2020/01/17 18:33 UTC (3 hours ago):

TAF SPRU 171600Z 1718/1818 14013KT CAVOK TX24/1719Z TN19/1811Z FM180400 17007KT 7000 OVC013 BECMG 1809/1811 4000 BR OVC008 TEMPO 1810/1814 2500 OVC003 BECMG 1815/1817 5000 OVC006